Time;durP1;ratioP1;P1;durP2;ratioP2;P2;SDS_P1;SDS_P2;PMS_P1;PMS_P2;Temp;Humidity;BMP_temperature;BMP_pressure;BME280_temperature;BME280_humidity;BME280_pressure;Samples;Min_cycle;Max_cycle;Signal;HPM_P1;HPM_P2
2022/03/14 00:01:16;;;;;;;13.17;10.47;;;10.20;35.80;;;10.48;33.81;97661.63;6236437;23;20016;-40
2022/03/14 00:03:55;;;;;;;14.20;9.97;;;10.10;36.10;;;10.41;33.84;97674.75;6235093;23;20012;-39
2022/03/14 00:06:23;;;;;;;15.50;10.70;;;10.00;36.40;;;10.33;33.93;97684.50;6235198;23;20038;-40
2022/03/14 00:08:57;;;;;;;12.77;9.73;;;9.90;36.50;;;10.32;34.07;97689.00;6209494;23;20222;-40
2022/03/14 00:11:26;;;;;;;14.47;9.43;;;9.90;36.60;;;10.34;34.09;97684.34;6245981;23;20016;-40
2022/03/14 00:13:57;;;;;;;15.50;9.80;;;10.00;36.60;;;10.37;33.78;97688.50;6236279;23;20015;-40
2022/03/14 00:16:26;;;;;;;12.87;9.20;;;10.00;36.40;;;10.37;34.14;97686.72;6235716;23;20052;-40
2022/03/14 00:18:57;;;;;;;15.43;9.93;;;10.10;36.50;;;10.42;33.95;97691.53;6236023;23;20016;-40
2022/03/14 00:21:26;;;;;;;16.27;9.50;;;10.10;36.30;;;10.40;33.89;97701.50;6210320;23;20042;-40
2022/03/14 00:23:57;;;;;;;17.97;10.93;;;10.10;35.90;;;10.30;34.01;97709.59;6233981;23;20023;-40
2022/03/14 00:26:26;;;;;;;15.23;9.20;;;10.00;36.10;;;10.25;34.18;97718.03;6233103;23;20035;-40
2022/03/14 00:28:54;;;;;;;15.17;9.17;;;9.90;36.40;;;10.27;34.19;97733.00;6235424;23;20286;-40
2022/03/14 00:31:22;;;;;;;17.53;11.73;;;10.00;36.80;;;10.32;34.50;97731.56;6235150;23;20495;-40
2022/03/14 00:33:51;;;;;;;13.50;9.20;;;10.10;36.80;;;10.26;34.71;97742.81;6234333;23;20299;-40
2022/03/14 00:36:25;;;;;;;16.13;10.70;;;10.00;37.20;;;10.30;34.94;97757.50;6234947;23;20016;-40
2022/03/14 00:38:54;;;;;;;18.97;10.97;;;10.10;37.30;;;10.29;35.42;97761.13;6220436;23;20027;-40
2022/03/14 00:41:22;;;;;;;19.10;11.83;;;10.10;37.70;;;10.28;35.89;97771.94;6235260;23;20014;-40
2022/03/14 00:43:51;;;;;;;19.97;11.70;;;10.10;38.60;;;10.23;36.55;97777.72;6234960;23;20307;-40
2022/03/14 00:46:19;;;;;;;19.63;13.03;;;10.10;39.60;;;10.34;36.18;97781.97;6235441;23;20020;-40
2022/03/14 00:48:47;;;;;;;20.10;12.77;;;10.20;39.20;;;10.37;36.72;97787.84;6234507;23;20298;-40
2022/03/14 00:51:16;;;;;;;18.30;11.90;;;10.20;40.70;;;10.27;39.33;97788.88;6235368;23;20218;-40
2022/03/14 00:53:44;;;;;;;22.73;13.33;;;10.10;43.50;;;10.30;39.91;97786.78;6235302;23;20019;-40
2022/03/14 00:56:13;;;;;;;24.93;13.83;;;10.20;44.70;;;10.35;40.97;97789.81;6235521;23;20020;-40
2022/03/14 00:58:41;;;;;;;22.17;14.43;;;10.20;47.00;;;10.31;43.58;97800.91;6236512;23;20045;-40
2022/03/14 01:01:10;;;;;;;24.63;12.90;;;10.20;49.80;;;10.20;46.32;97797.50;6234347;23;20012;-40
2022/03/14 01:03:38;;;;;;;22.33;13.73;;;10.20;54.20;;;10.04;48.31;97808.84;6234331;23;20020;-40
2022/03/14 01:06:06;;;;;;;21.73;13.33;;;10.10;57.30;;;10.03;51.27;97820.47;6235418;23;20016;-40
2022/03/14 01:08:33;;;;;;;22.73;12.47;;;10.10;62.40;;;9.96;52.62;97821.22;6235160;23;20022;-40
2022/03/14 01:11:01;;;;;;;15.67;10.97;;;10.00;63.10;;;9.99;54.05;97844.88;6183158;23;20249;-40
2022/03/14 01:13:29;;;;;;;17.30;10.53;;;10.00;68.10;;;9.79;58.81;97833.53;6235720;23;20031;-41
2022/03/14 01:15:59;;;;;;;14.27;10.30;;;9.80;72.20;;;9.72;58.10;97840.47;6236298;23;20038;-40
2022/03/14 01:18:27;;;;;;;13.57;9.17;;;9.80;72.50;;;9.58;61.01;97842.66;6234530;23;20020;-41
2022/03/14 01:20:55;;;;;;;15.17;9.60;;;9.70;75.70;;;9.71;58.32;97844.09;6235116;23;20020;-42
2022/03/14 01:23:23;;;;;;;14.70;9.97;;;9.70;72.80;;;9.65;60.54;97854.34;6235445;23;20026;-40
2022/03/14 01:25:51;;;;;;;13.50;8.03;;;9.70;76.30;;;9.44;59.93;97857.28;6236382;23;20020;-40
2022/03/14 01:28:19;;;;;;;11.27;7.03;;;9.50;76.10;;;9.43;61.11;97855.59;6235010;23;20016;-40
2022/03/14 01:30:47;;;;;;;9.23;6.27;;;9.60;75.90;;;9.37;60.99;97864.16;6209549;23;20200;-40
2022/03/14 01:33:15;;;;;;;8.67;5.73;;;9.50;75.90;;;9.50;59.09;97873.59;6234870;23;20026;-40
2022/03/14 01:35:42;;;;;;;12.77;6.13;;;9.50;75.10;;;9.39;59.89;97883.44;6208017;23;20457;-40
2022/03/14 01:38:11;;;;;;;11.10;5.70;;;9.50;74.20;;;9.51;59.88;97888.56;6235165;23;20233;-40
2022/03/14 01:40:39;;;;;;;8.03;4.40;;;9.60;74.20;;;9.36;61.00;97901.50;6235126;23;20012;-41
2022/03/14 01:43:07;;;;;;;5.33;3.63;;;9.50;74.70;;;9.46;59.96;97913.78;6234822;23;20020;-41
2022/03/14 01:45:34;;;;;;;5.60;3.63;;;9.50;74.60;;;9.31;61.72;97920.56;6236017;23;20445;-41
2022/03/14 01:48:05;;;;;;;5.00;4.07;;;9.40;76.10;;;9.25;61.31;97934.44;6235072;23;20406;-41
2022/03/14 01:50:34;;;;;;;5.07;3.70;;;9.30;76.80;;;9.11;62.62;97950.81;6233965;23;20024;-41
2022/03/14 01:53:02;;;;;;;4.80;3.50;;;9.20;80.40;;;9.26;61.03;97963.47;6235195;23;20217;-41
2022/03/14 01:55:30;;;;;;;3.80;2.90;;;9.20;78.70;;;9.14;63.53;97958.50;6235197;23;20038;-41
2022/03/14 01:57:58;;;;;;;5.13;2.60;;;9.20;82.40;;;9.22;61.74;97964.75;6234057;23;20026;-41
2022/03/14 02:00:28;;;;;;;3.97;2.47;;;9.20;81.30;;;9.36;61.75;97976.72;6209357;23;20020;-41
2022/03/14 02:02:57;;;;;;;3.60;2.57;;;9.30;80.80;;;9.42;60.66;97981.50;6235091;23;20016;-41
2022/03/14 02:05:27;;;;;;;4.27;2.23;;;9.30;78.90;;;9.40;63.21;98003.84;6233723;23;20024;-41
2022/03/14 02:07:58;;;;;;;3.03;2.17;;;9.30;83.10;;;9.51;60.88;98008.16;6235174;23;20024;-41
2022/03/14 02:10:26;;;;;;;2.77;1.97;;;9.40;80.50;;;9.56;61.63;98012.06;6234602;23;20038;-41
2022/03/14 02:12:54;;;;;;;4.63;2.43;;;9.50;82.10;;;9.62;60.40;98018.63;6234613;23;20020;-41
2022/03/14 02:15:22;;;;;;;3.23;2.00;;;9.50;79.40;;;9.59;60.76;98032.19;6234676;23;20491;-41
2022/03/14 02:17:50;;;;;;;4.13;2.00;;;9.40;80.40;;;9.57;61.22;98035.00;6234893;23;20535;-41
2022/03/14 02:20:19;;;;;;;2.37;1.90;;;9.50;81.70;;;9.49;61.11;98042.84;6234232;23;20034;-41
2022/03/14 02:22:47;;;;;;;3.37;1.80;;;9.40;81.00;;;9.60;60.18;98044.53;6235108;23;20016;-41
2022/03/14 02:25:15;;;;;;;2.37;1.70;;;9.50;79.30;;;9.67;60.16;98048.25;6206950;23;20030;-41
2022/03/14 02:27:43;;;;;;;2.20;1.63;;;9.50;79.70;;;9.57;61.40;98055.44;6235063;23;20395;-41
2022/03/14 02:30:11;;;;;;;2.30;1.73;;;9.40;81.80;;;9.55;61.57;98058.22;6236143;23;20020;-40
2022/03/14 02:32:41;;;;;;;2.40;1.80;;;9.30;81.10;;;9.59;61.18;98066.75;6237173;23;20298;-41
2022/03/14 02:35:11;;;;;;;2.17;1.60;;;9.40;81.30;;;9.36;62.95;98059.09;6233764;23;20024;-41
2022/03/14 02:37:39;;;;;;;2.33;2.00;;;9.10;84.80;;;9.38;62.68;98059.84;6236875;23;20020;-41
2022/03/14 02:40:09;;;;;;;2.37;1.80;;;9.10;85.20;;;9.49;61.25;98063.28;6210187;23;20016;-40
2022/03/14 02:42:38;;;;;;;2.50;1.60;;;9.20;83.50;;;9.40;61.84;98063.19;6236448;23;20422;-41
2022/03/14 02:45:07;;;;;;;2.40;1.77;;;9.10;83.70;;;9.30;62.64;98070.31;6236143;23;20027;-41
2022/03/14 02:47:35;;;;;;;2.77;1.80;;;9.00;85.30;;;9.10;64.58;98089.94;6236111;23;20227;-41
2022/03/14 02:50:03;;;;;;;1.93;1.50;;;8.80;89.40;;;9.17;63.17;98080.41;6235257;23;20020;-41
2022/03/14 02:52:31;;;;;;;3.00;1.90;;;8.90;89.00;;;9.11;64.36;98086.28;6236730;23;20016;-42
2022/03/14 02:54:59;;;;;;;2.33;1.80;;;8.80;91.00;;;9.07;64.73;98086.56;6235504;23;20034;-41
2022/03/14 02:57:28;;;;;;;3.00;2.07;;;8.80;92.90;;;9.15;63.59;98093.84;6235680;23;20203;-41
2022/03/14 02:59:56;;;;;;;5.30;2.30;;;8.90;91.30;;;9.21;63.29;98100.41;6236686;23;20016;-40
2022/03/14 03:02:25;;;;;;;3.00;1.73;;;8.90;92.40;;;9.01;65.51;98102.22;6237326;23;20310;-41
2022/03/14 03:04:53;;;;;;;3.70;2.17;;;8.70;98.70;;;8.98;64.91;98106.00;6237255;23;20201;-41
2022/03/14 03:07:21;;;;;;;2.73;2.17;;;8.60;99.90;;;8.78;66.20;98107.81;6236870;23;20020;-41
2022/03/14 03:09:49;;;;;;;2.73;1.80;;;8.50;99.90;;;8.82;65.73;98111.88;6234806;23;20310;-40
2022/03/14 03:12:20;;;;;;;3.33;2.30;;;8.50;99.90;;;8.86;65.70;98115.09;6235681;23;20016;-40
2022/03/14 03:14:50;;;;;;;3.33;2.10;;;8.50;99.90;;;8.78;66.99;98126.41;6236085;23;20039;-40
2022/03/14 03:17:20;;;;;;;4.07;2.53;;;8.50;99.90;;;8.87;65.87;98127.38;6236178;23;20319;-41
2022/03/14 03:19:48;;;;;;;2.43;1.83;;;8.50;99.90;;;8.91;65.49;98146.53;6235489;23;20018;-41
2022/03/14 03:22:17;;;;;;;2.50;1.60;;;8.60;99.90;;;8.85;66.02;98146.09;6209964;23;20016;-41
2022/03/14 03:24:48;;;;;;;3.40;2.30;;;8.60;99.90;;;8.83;66.27;98149.88;6246975;23;20102;-41
2022/03/14 03:27:16;;;;;;;3.03;2.10;;;8.40;99.90;;;8.81;66.41;98150.00;6235810;23;20324;-41
2022/03/14 03:29:44;;;;;;;4.50;2.00;;;8.50;99.90;;;8.81;66.37;98154.47;6236140;23;20016;-41
2022/03/14 03:32:12;;;;;;;4.10;2.20;;;8.40;99.90;;;8.90;65.82;98160.78;6235838;23;20023;-41
2022/03/14 03:34:40;;;;;;;2.67;2.07;;;8.50;99.90;;;8.84;66.41;98162.16;6235320;23;20020;-41
2022/03/14 03:37:08;;;;;;;3.20;2.17;;;8.50;99.90;;;8.80;66.55;98166.94;6236251;23;20016;-41
2022/03/14 03:39:36;;;;;;;2.67;2.03;;;8.40;99.90;;;8.77;67.46;98175.16;6237326;23;20026;-41
2022/03/14 03:42:04;;;;;;;2.77;1.80;;;8.40;99.90;;;8.84;66.15;98172.78;6236449;23;20030;-41
2022/03/14 03:44:32;;;;;;;3.57;2.63;;;8.40;99.90;;;8.91;65.95;98181.06;6210301;23;20012;-41
2022/03/14 03:47:00;;;;;;;3.10;1.93;;;8.50;99.90;;;8.82;67.08;98178.25;6235137;23;20012;-41
2022/03/14 03:49:29;;;;;;;3.60;2.43;;;8.50;99.90;;;8.87;66.70;98180.47;6236093;23;20016;-41
2022/03/14 03:51:57;;;;;;;3.23;2.10;;;8.50;99.90;;;8.79;67.44;98194.44;6236660;23;20302;-41
2022/03/14 03:54:24;;;;;;;3.07;1.90;;;8.40;99.90;;;8.92;65.71;98196.00;6235625;23;20016;-41
2022/03/14 03:56:53;;;;;;;3.47;2.20;;;8.50;99.90;;;9.01;65.15;98195.16;6236539;23;20034;-41
2022/03/14 03:59:21;;;;;;;3.00;2.37;;;8.70;99.90;;;8.99;65.40;98202.44;6234861;23;20024;-41
2022/03/14 04:01:49;;;;;;;4.27;2.43;;;8.60;99.90;;;9.00;65.63;98204.13;6236105;23;20191;-41
2022/03/14 04:04:17;;;;;;;3.43;2.23;;;8.60;99.90;;;8.82;67.65;98209.25;6235847;23;20027;-41
2022/03/14 04:06:45;;;;;;;2.83;2.10;;;8.50;99.90;;;8.87;66.39;98209.69;6234411;23;20034;-41
2022/03/14 04:09:13;;;;;;;3.10;2.63;;;8.40;99.90;;;8.93;66.04;98211.78;6235882;23;20024;-41
2022/03/14 04:11:41;;;;;;;4.77;2.70;;;8.50;99.90;;;8.93;65.85;98213.63;6235563;23;20028;-41
2022/03/14 04:14:10;;;;;;;2.83;2.13;;;8.50;99.90;;;8.96;65.59;98222.16;6235385;23;20378;-41
2022/03/14 04:16:41;;;;;;;2.97;2.40;;;8.60;99.90;;;8.98;65.46;98225.50;6245452;23;20332;-41
2022/03/14 04:19:08;;;;;;;4.73;2.93;;;8.60;99.90;;;8.95;65.40;98222.28;6234819;23;20024;-41
2022/03/14 04:21:37;;;;;;;3.10;2.47;;;8.50;99.90;;;8.91;66.03;98221.72;6236208;23;20293;-41
2022/03/14 04:24:06;;;;;;;2.73;2.33;;;8.40;99.90;;;8.96;65.22;98226.63;6235009;23;20020;-41
2022/03/14 04:26:34;;;;;;;4.17;2.80;;;8.50;99.90;;;9.01;65.25;98224.38;6233568;23;20046;-41
2022/03/14 04:29:02;;;;;;;8.57;5.67;;;8.60;99.90;;;9.01;65.02;98246.47;6236158;23;20023;-41
2022/03/14 04:31:29;;;;;;;4.60;3.53;;;8.60;99.90;;;9.05;65.10;98257.66;6235917;23;20024;-41
2022/03/14 04:33:59;;;;;;;4.13;3.00;;;8.60;99.90;;;9.07;65.08;98269.84;6234574;23;20027;-41
2022/03/14 04:36:27;;;;;;;4.63;2.83;;;8.70;99.90;;;9.13;64.67;98278.22;6234933;23;20022;-41
2022/03/14 04:38:55;;;;;;;4.03;3.20;;;8.80;99.90;;;9.19;64.58;98281.19;6233029;23;20024;-41
2022/03/14 04:41:22;;;;;;;15.23;9.90;;;8.80;99.90;;;9.24;64.45;98286.91;6235541;23;20020;-41
2022/03/14 04:43:50;;;;;;;7.20;5.00;;;8.90;99.90;;;9.28;64.17;98292.81;6235644;23;20363;-41
2022/03/14 04:46:18;;;;;;;4.63;3.47;;;8.90;99.90;;;9.33;64.12;98311.00;6235445;23;20333;-41
2022/03/14 04:48:46;;;;;;;2.63;2.17;;;9.00;99.90;;;9.33;64.03;98316.31;6233105;23;20053;-41
2022/03/14 04:51:14;;;;;;;3.27;2.40;;;9.00;99.90;;;9.31;64.07;98316.47;6234895;23;20027;-41
2022/03/14 04:53:42;;;;;;;5.40;3.30;;;8.90;99.90;;;9.34;63.81;98315.34;6235215;23;20020;-41
2022/03/14 04:56:10;;;;;;;2.70;2.30;;;8.90;99.90;;;9.35;64.29;98322.34;6209265;23;20046;-41
2022/03/14 04:58:41;;;;;;;3.97;2.80;;;9.00;99.90;;;9.37;63.97;98318.56;6207326;23;20028;-41
2022/03/14 05:01:09;;;;;;;2.80;1.70;;;9.00;99.90;;;9.35;63.36;98315.19;6234976;23;20024;-41
2022/03/14 05:03:37;;;;;;;2.57;1.80;;;9.10;99.90;;;9.30;63.52;98312.09;6235709;23;20026;-41
2022/03/14 05:06:05;;;;;;;2.73;1.40;;;8.90;99.90;;;9.34;63.44;98304.69;6236276;23;20191;-41
2022/03/14 05:08:33;;;;;;;2.17;1.27;;;9.00;99.90;;;9.28;63.05;98300.78;6209577;23;20020;-41
2022/03/14 05:11:00;;;;;;;1.50;1.30;;;8.90;99.90;;;9.25;62.74;98303.72;6235222;23;20435;-41
2022/03/14 05:13:28;;;;;;;2.43;1.73;;;8.90;99.90;;;9.21;62.75;98311.13;6235782;23;20012;-41
2022/03/14 05:15:56;;;;;;;2.03;1.50;;;8.90;99.00;;;9.16;62.82;98305.38;6233065;23;20016;-41
2022/03/14 05:18:24;;;;;;;1.90;1.17;;;8.80;98.20;;;9.07;62.94;98306.16;6235733;23;20317;-41
2022/03/14 05:20:52;;;;;;;2.63;1.63;;;8.70;98.30;;;9.18;62.42;98313.22;6235590;23;20344;-41
2022/03/14 05:23:22;;;;;;;2.30;1.70;;;8.80;97.70;;;9.23;62.34;98318.97;6236432;23;20018;-41
2022/03/14 05:25:50;;;;;;;4.27;1.60;;;8.90;96.80;;;9.25;62.06;98327.63;6236308;23;20012;-41
2022/03/14 05:28:17;;;;;;;1.73;1.20;;;9.00;94.70;;;9.07;62.13;98338.03;6235230;23;20020;-41
2022/03/14 05:30:45;;;;;;;2.50;1.30;;;8.70;92.00;;;9.05;61.34;98346.16;6234466;23;20030;-41
2022/03/14 05:33:13;;;;;;;2.73;1.47;;;8.70;91.20;;;9.07;61.05;98344.22;6235783;23;20023;-41
2022/03/14 05:35:41;;;;;;;4.40;1.50;;;8.70;89.60;;;8.98;60.95;98360.94;6232640;23;20024;-41
2022/03/14 05:38:09;;;;;;;2.83;1.30;;;8.60;88.10;;;9.04;60.69;98359.59;6234990;23;20024;-41
2022/03/14 05:40:37;;;;;;;3.60;1.23;;;8.70;88.30;;;9.11;60.60;98367.84;6206658;23;20075;-41
2022/03/14 05:43:07;;;;;;;5.10;1.50;;;8.70;87.00;;;9.06;60.25;98363.78;6206736;23;20024;-41
2022/03/14 05:45:35;;;;;;;3.03;1.30;;;8.70;86.10;;;9.12;60.02;98383.66;6235008;23;20020;-41
2022/03/14 05:48:04;;;;;;;3.47;1.83;;;8.70;85.40;;;9.13;59.54;98387.13;6233858;23;20024;-41
2022/03/14 05:50:32;;;;;;;3.77;2.17;;;8.80;81.60;;;9.10;59.19;98396.22;6236226;23;20318;-41
2022/03/14 05:53:01;;;;;;;2.70;1.33;;;8.80;82.20;;;9.12;59.21;98391.63;6234477;23;20016;-41
2022/03/14 05:55:29;;;;;;;4.90;1.33;;;8.80;80.50;;;9.13;58.83;98389.78;6234771;23;20229;-42
2022/03/14 05:57:57;;;;;;;3.70;1.30;;;8.80;79.10;;;9.11;58.46;98392.63;6235051;23;20023;-42
2022/03/14 06:00:25;;;;;;;5.33;1.37;;;8.80;78.40;;;9.10;58.29;98393.56;6234802;23;20026;-41
2022/03/14 06:02:54;;;;;;;4.30;1.40;;;8.80;78.00;;;8.99;58.41;98402.47;6206787;23;20009;-41
2022/03/14 06:05:22;;;;;;;2.20;1.03;;;8.70;77.90;;;9.03;58.20;98405.69;6236780;23;20195;-41
2022/03/14 06:07:51;;;;;;;6.53;1.93;;;8.60;77.50;;;9.09;57.94;98410.47;6237193;23;20695;-41
2022/03/14 06:10:19;;;;;;;3.80;1.30;;;8.70;76.50;;;9.05;58.01;98414.38;6236308;23;20012;-42
2022/03/14 06:12:47;;;;;;;6.50;2.10;;;8.70;75.50;;;9.05;57.56;98417.88;6236967;23;20024;-42
2022/03/14 06:15:16;;;;;;;4.23;1.40;;;8.80;74.70;;;9.08;57.57;98419.44;6236938;23;20394;-43
2022/03/14 06:17:45;;;;;;;5.20;1.60;;;8.80;74.50;;;9.12;57.31;98426.16;6236277;23;20026;-42
2022/03/14 06:20:15;;;;;;;3.30;1.77;;;8.80;74.00;;;9.16;57.02;98429.38;6236133;23;20378;-42
2022/03/14 06:22:46;;;;;;;5.70;2.50;;;8.90;73.70;;;9.19;57.23;98435.28;6236507;23;20016;-42
2022/03/14 06:25:18;;;;;;;6.13;1.83;;;8.90;73.60;;;9.21;56.87;98443.97;6234992;23;20030;-44
2022/03/14 06:27:48;;;;;;;11.40;2.75;;;8.90;73.30;;;9.21;57.00;98441.31;6246613;23;20012;-44
2022/03/14 06:30:16;;;;;;;4.20;1.40;;;8.90;72.60;;;9.21;56.61;98451.94;6235722;23;20333;-43
2022/03/14 06:32:47;;;;;;;6.63;2.10;;;8.80;72.30;;;9.12;56.48;98444.75;6237075;23;20255;-42
2022/03/14 06:35:17;;;;;;;4.20;1.67;;;8.70;72.40;;;9.13;56.44;98457.06;6235829;23;20020;-42
2022/03/14 06:37:46;;;;;;;3.40;1.70;;;8.70;71.90;;;9.12;56.16;98451.88;6220549;23;20016;-45
2022/03/14 06:40:14;;;;;;;8.03;2.20;;;8.70;72.10;;;9.13;56.07;98459.72;6235816;23;20194;-43
2022/03/14 06:42:48;;;;;;;3.37;1.40;;;8.70;71.40;;;9.06;56.10;98472.69;6236397;23;20046;-43
2022/03/14 06:45:23;;;;;;;5.00;1.30;;;8.70;71.20;;;9.00;56.06;98475.03;6245903;23;20020;-43
2022/03/14 06:47:53;;;;;;;7.10;1.73;;;8.60;71.30;;;9.00;56.06;98478.53;6234148;23;20024;-44
2022/03/14 06:50:23;;;;;;;3.90;1.40;;;8.60;72.00;;;9.00;56.04;98483.84;6208172;23;20273;-44
2022/03/14 06:52:53;;;;;;;6.10;2.43;;;8.60;71.10;;;9.01;56.05;98482.84;6235243;23;20034;-42
2022/03/14 06:55:20;;;;;;;3.47;1.53;;;8.60;70.80;;;9.00;55.89;98486.50;6236548;23;20028;-43
2022/03/14 06:57:48;;;;;;;4.20;1.40;;;8.60;71.00;;;9.03;55.85;98483.59;6235281;23;20500;-42
2022/03/14 07:00:17;;;;;;;5.00;2.00;;;8.70;70.60;;;9.06;55.82;98483.31;6235362;23;20012;-43
2022/03/14 07:02:45;;;;;;;4.70;1.67;;;8.70;70.00;;;9.02;55.50;98483.72;6234397;23;20019;-43
2022/03/14 07:05:17;;;;;;;3.57;1.87;;;8.70;69.70;;;9.06;55.72;98490.44;6208433;23;20012;-43
2022/03/14 07:07:47;;;;;;;2.60;1.63;;;8.70;69.70;;;9.09;55.44;98489.31;6246230;23;20012;-44
2022/03/14 07:10:17;;;;;;;5.80;1.93;;;8.80;69.60;;;9.05;55.36;98489.59;6235163;23;20024;-42
2022/03/14 07:12:48;;;;;;;4.63;2.20;;;8.70;69.00;;;9.04;55.21;98487.91;6236073;23;20020;-43
2022/03/14 07:15:22;;;;;;;4.70;1.80;;;8.70;69.10;;;9.04;55.33;98493.22;6213060;23;20015;-44
2022/03/14 07:17:50;;;;;;;7.72;1.83;;;8.70;69.20;;;9.07;55.22;98498.28;6236101;23;20209;-43
2022/03/14 07:20:20;;;;;;;6.17;2.43;;;8.80;69.20;;;9.11;55.15;98498.00;6234846;23;20023;-43
2022/03/14 07:22:59;;;;;;;3.33;2.20;;;8.80;68.50;;;8.98;54.70;98503.53;6237258;23;20027;-43
2022/03/14 07:25:29;;;;;;;5.67;1.97;;;8.70;67.90;;;9.01;54.69;98503.25;6245957;23;20012;-43
2022/03/14 07:28:07;;;;;;;2.93;1.27;;;8.70;67.70;;;8.98;54.26;98511.50;6245953;23;20011;-42
2022/03/14 07:30:38;;;;;;;3.30;1.40;;;8.80;66.20;;;8.96;54.41;98508.13;6245004;23;20024;-42
2022/03/14 07:33:06;;;;;;;5.03;1.20;;;8.70;66.80;;;9.03;54.65;98510.16;6236522;23;20038;-43
2022/03/14 07:35:36;;;;;;;4.93;2.50;;;8.80;66.80;;;9.09;54.47;98515.88;6234298;23;20015;-41
2022/03/14 07:38:04;;;;;;;2.73;1.43;;;8.90;66.60;;;9.13;54.30;98517.31;6233937;23;20028;-42
2022/03/14 07:40:33;;;;;;;2.73;1.40;;;9.00;66.00;;;9.16;54.15;98533.00;6236048;23;20020;-43
2022/03/14 07:43:01;;;;;;;2.27;1.30;;;9.00;65.80;;;9.21;54.18;98536.13;6236974;23;20019;-42
2022/03/14 07:45:33;;;;;;;6.70;1.50;;;9.10;65.20;;;9.03;53.96;98549.13;6206906;23;20016;-44
2022/03/14 07:48:06;;;;;;;2.60;1.23;;;8.90;64.50;;;9.05;53.66;98552.50;6233866;23;20337;-45
2022/03/14 07:50:34;;;;;;;2.13;1.30;;;8.90;65.10;;;9.15;53.90;98560.53;6234635;23;20030;-43
2022/03/14 07:53:03;;;;;;;5.07;2.67;;;9.00;64.80;;;9.21;53.95;98571.50;6235997;23;20016;-44
2022/03/14 07:55:31;;;;;;;5.33;1.50;;;9.20;65.20;;;9.37;53.99;98583.47;6234491;23;20024;-46
2022/03/14 07:57:59;;;;;;;3.47;1.10;;;9.40;64.10;;;9.45;53.82;98587.16;6233917;23;20034;-44
2022/03/14 08:00:27;;;;;;;4.13;1.77;;;9.50;64.50;;;9.38;53.40;98583.34;6235007;23;20179;-44
2022/03/14 08:02:55;;;;;;;4.37;1.20;;;9.50;63.60;;;9.42;53.94;98581.25;6234397;23;20016;-46
2022/03/14 08:05:25;;;;;;;3.73;2.07;;;9.40;65.00;;;9.53;53.80;98577.69;6235681;23;20018;-43
2022/03/14 08:07:54;;;;;;;4.23;1.50;;;9.50;64.50;;;9.61;53.64;98588.50;6235975;23;20347;-45
2022/03/14 08:10:22;;;;;;;6.47;1.97;;;9.60;64.40;;;9.63;53.16;98592.72;6235767;23;20028;-44
2022/03/14 08:12:56;;;;;;;5.33;1.60;;;9.60;63.40;;;9.65;53.22;98596.09;6236208;23;20016;-45
2022/03/14 08:15:26;;;;;;;4.53;1.55;;;9.50;63.80;;;9.61;53.20;98597.31;6234426;23;20318;-45
2022/03/14 08:17:58;;;;;;;5.40;1.67;;;9.40;63.90;;;9.68;53.04;98602.97;6234451;23;20024;-45
2022/03/14 08:20:28;;;;;;;4.67;1.30;;;9.50;64.10;;;9.72;52.62;98604.38;6234419;23;20012;-45
2022/03/14 08:22:59;;;;;;;6.67;1.53;;;9.50;63.30;;;9.73;52.46;98606.06;6234517;23;20248;-46
2022/03/14 08:25:36;;;;;;;2.55;1.75;;;9.60;62.60;;;9.74;52.48;98605.09;6246233;23;20027;-44
2022/03/14 08:28:04;;;;;;;4.90;1.63;;;9.70;62.70;;;9.83;52.42;98614.94;6244429;23;20026;-46
2022/03/14 08:30:32;;;;;;;4.30;2.17;;;9.80;62.10;;;9.82;51.44;98620.38;6233970;23;20016;-46
2022/03/14 08:33:00;;;;;;;6.70;3.60;;;9.80;59.90;;;9.86;50.73;98619.97;6234678;23;20196;-44
2022/03/14 08:35:28;;;;;;;4.23;1.40;;;9.90;58.70;;;9.89;50.75;98618.00;6233956;23;20213;-43
2022/03/14 08:37:57;;;;;;;5.40;1.90;;;9.90;59.00;;;9.93;50.30;98622.94;6233330;23;20339;-44
2022/03/14 08:40:27;;;;;;;3.60;1.30;;;9.90;58.10;;;9.92;49.03;98631.91;6234784;23;20016;-44
2022/03/14 08:42:56;;;;;;;3.30;2.10;;;9.90;56.10;;;9.94;49.24;98642.41;6234664;23;20016;-44
2022/03/14 08:45:25;;;;;;;6.63;1.67;;;10.00;56.90;;;9.97;49.32;98639.50;6233995;23;20019;-45
2022/03/14 08:47:54;;;;;;;3.17;1.70;;;10.00;56.60;;;10.00;48.59;98641.88;6232331;23;20016;-45
2022/03/14 08:50:22;;;;;;;3.83;1.50;;;10.00;55.10;;;10.02;48.65;98635.47;6231979;23;20022;-44
2022/03/14 08:52:52;;;;;;;6.57;2.60;;;10.10;56.20;;;10.09;48.99;98641.06;6234239;23;20024;-45
2022/03/14 08:55:20;;;;;;;4.13;1.50;;;10.10;56.70;;;10.18;48.84;98644.78;6233146;23;20322;-46
2022/03/14 08:57:48;;;;;;;5.10;1.60;;;10.30;56.50;;;10.12;48.43;98637.28;6233511;23;20024;-46
2022/03/14 09:00:17;;;;;;;5.03;1.30;;;10.30;55.60;;;10.13;47.78;98641.66;6233077;23;20020;-45
2022/03/14 09:02:44;;;;;;;4.67;1.60;;;10.20;55.20;;;10.11;48.08;98649.75;6234272;23;20092;-46
2022/03/14 09:05:12;;;;;;;4.27;1.30;;;10.20;54.30;;;10.07;47.42;98656.34;6207839;23;20020;-45
2022/03/14 09:07:40;;;;;;;3.70;1.20;;;10.20;54.40;;;10.07;47.22;98650.19;6234795;23;20690;-44
2022/03/14 09:10:14;;;;;;;5.83;2.70;;;10.00;54.30;;;10.10;47.08;98647.22;6233334;23;20352;-44
2022/03/14 09:12:49;;;;;;;2.87;1.50;;;10.00;54.20;;;10.10;47.38;98657.88;6243975;23;20016;-45
2022/03/14 09:15:19;;;;;;;4.27;1.47;;;10.00;54.10;;;10.08;47.44;98652.72;6233325;23;20026;-46
2022/03/14 09:17:54;;;;;;;4.90;1.60;;;10.10;54.70;;;10.12;46.37;98653.25;6233608;23;20026;-46
2022/03/14 09:20:24;;;;;;;4.57;1.60;;;10.10;53.10;;;10.03;46.05;98657.56;6217254;23;20024;-46
2022/03/14 09:22:53;;;;;;;5.53;1.03;;;10.10;52.50;;;9.91;46.57;98651.50;6234822;23;20020;-45
2022/03/14 09:25:22;;;;;;;4.17;1.17;;;9.90;53.20;;;10.11;47.15;98646.28;6233149;23;20012;-45
2022/03/14 09:27:51;;;;;;;2.97;1.10;;;10.00;54.60;;;10.16;47.14;98644.91;6233511;23;20040;-46
2022/03/14 09:30:20;;;;;;;3.30;1.43;;;10.10;54.50;;;10.22;47.03;98639.03;6233833;23;20030;-43
2022/03/14 09:32:48;;;;;;;4.03;1.40;;;10.20;54.10;;;10.30;46.65;98645.50;6234531;23;20024;-46
2022/03/14 09:35:16;;;;;;;3.87;1.30;;;10.20;53.30;;;10.32;46.33;98647.06;6234625;23;20024;-44
2022/03/14 09:37:46;;;;;;;4.90;1.30;;;10.20;52.80;;;10.34;46.64;98641.63;6233503;23;20261;-43
2022/03/14 09:40:18;;;;;;;4.77;1.33;;;10.30;53.50;;;10.37;46.17;98633.34;6237224;23;20019;-45
2022/03/14 09:42:56;;;;;;;3.87;1.47;;;10.30;53.30;;;10.42;46.55;98636.47;6236467;23;20024;-44
2022/03/14 09:45:24;;;;;;;4.33;1.40;;;10.30;52.80;;;10.40;46.35;98644.56;6236526;23;20024;-44
2022/03/14 09:47:59;;;;;;;4.47;2.50;;;10.40;53.00;;;10.50;46.31;98651.75;6236925;23;20020;-45
2022/03/14 09:50:34;;;;;;;5.27;1.47;;;10.50;53.40;;;10.46;45.78;98653.00;6244924;23;20012;-47
2022/03/14 09:53:11;;;;;;;3.70;1.77;;;10.50;52.40;;;10.48;46.00;98653.72;6245968;23;20024;-44
2022/03/14 09:55:42;;;;;;;5.70;1.50;;;10.60;52.30;;;10.60;46.25;98671.25;6246285;23;20016;-51
2022/03/14 09:58:16;;;;;;;4.13;1.73;;;10.60;52.40;;;10.60;45.52;98674.78;6246853;23;20024;-50
2022/03/14 10:00:45;;;;;;;2.92;1.33;;;10.70;51.00;;;10.69;46.18;98667.78;6245921;23;20016;-52
2022/03/14 10:03:22;;;;;;;3.73;2.00;;;10.80;52.50;;;10.81;45.85;98666.66;6236145;23;20016;-44
2022/03/14 10:05:50;;;;;;;1.77;1.13;;;10.90;51.80;;;10.87;44.96;98670.59;6246432;23;20030;-44
2022/03/14 10:08:18;;;;;;;4.07;1.50;;;11.00;51.10;;;10.95;45.28;98670.78;6235050;23;20028;-45
2022/03/14 10:10:47;;;;;;;4.13;1.37;;;11.10;51.30;;;11.02;45.07;98674.56;6236537;23;20016;-45
2022/03/14 10:13:37;;;;;;;3.93;1.77;;;11.20;49.90;;;11.09;44.31;98682.84;6236075;23;20316;-45
2022/03/14 10:16:06;;;;;;;5.35;1.20;;;11.20;50.20;;;10.99;42.45;98680.19;6236563;23;20016;-44
2022/03/14 10:18:58;;;;;;;4.73;1.07;;;11.20;47.10;;;10.78;42.10;98680.28;6219154;23;20214;-45
2022/03/14 10:21:31;;;;;;;3.35;0.90;;;11.20;46.70;;;10.82;42.13;98675.53;6247856;23;20024;-44
2022/03/14 10:24:07;;;;;;;1.63;1.05;;;11.20;46.60;;;10.98;42.54;98675.81;6209968;23;20556;-44
2022/03/14 10:26:39;;;;;;;3.92;1.40;;;11.30;47.70;;;11.00;43.25;98676.50;6236030;23;20016;-43
2022/03/14 10:29:09;;;;;;;2.42;1.10;;;11.30;47.90;;;10.85;42.44;98667.25;6245721;23;20012;-45
2022/03/14 10:31:45;;;;;;;2.22;1.10;;;11.30;46.20;;;10.87;41.82;98678.59;6209652;23;20015;-43
2022/03/14 10:34:15;;;;;;;2.88;1.30;;;11.30;46.40;;;10.89;42.47;98678.47;6245072;23;20016;-43
2022/03/14 10:36:53;;;;;;;3.97;2.00;;;11.30;47.00;;;10.89;42.39;98668.66;6235790;23;20022;-44